sensor_id;sensor_type;location;lat;lon;timestamp;P1;durP1;ratioP1;P2;durP2;ratioP2
51901;SDS011;37929;53.218;6.548;2023-10-31T00:00:34;7.32;;;2.13;;
51901;SDS011;37929;53.218;6.548;2023-10-31T00:02:59;5.25;;;2.00;;
51901;SDS011;37929;53.218;6.548;2023-10-31T00:05:25;6.88;;;2.20;;
51901;SDS011;37929;53.218;6.548;2023-10-31T00:07:51;6.50;;;2.30;;
51901;SDS011;37929;53.218;6.548;2023-10-31T00:10:17;5.97;;;2.03;;
51901;SDS011;37929;53.218;6.548;2023-10-31T00:12:42;7.07;;;2.42;;
51901;SDS011;37929;53.218;6.548;2023-10-31T00:15:08;5.30;;;2.03;;
51901;SDS011;37929;53.218;6.548;2023-10-31T00:17:34;4.80;;;2.40;;
51901;SDS011;37929;53.218;6.548;2023-10-31T00:20:00;4.40;;;1.90;;
51901;SDS011;37929;53.218;6.548;2023-10-31T00:22:25;6.30;;;2.28;;
51901;SDS011;37929;53.218;6.548;2023-10-31T00:24:51;5.43;;;1.90;;
51901;SDS011;37929;53.218;6.548;2023-10-31T00:27:17;3.90;;;1.73;;
51901;SDS011;37929;53.218;6.548;2023-10-31T00:29:42;4.38;;;1.90;;
51901;SDS011;37929;53.218;6.548;2023-10-31T00:32:08;4.88;;;1.90;;
51901;SDS011;37929;53.218;6.548;2023-10-31T00:34:34;6.75;;;2.05;;
51901;SDS011;37929;53.218;6.548;2023-10-31T00:36:59;5.13;;;2.00;;
51901;SDS011;37929;53.218;6.548;2023-10-31T00:39:25;7.35;;;1.95;;
51901;SDS011;37929;53.218;6.548;2023-10-31T00:41:51;6.47;;;2.13;;
51901;SDS011;37929;53.218;6.548;2023-10-31T00:44:16;4.38;;;1.80;;
51901;SDS011;37929;53.218;6.548;2023-10-31T00:46:42;3.72;;;1.60;;
51901;SDS011;37929;53.218;6.548;2023-10-31T00:49:08;5.57;;;1.92;;
51901;SDS011;37929;53.218;6.548;2023-10-31T00:51:34;4.90;;;1.92;;
51901;SDS011;37929;53.218;6.548;2023-10-31T00:54:00;4.25;;;1.63;;
51901;SDS011;37929;53.218;6.548;2023-10-31T00:56:26;5.68;;;1.90;;
51901;SDS011;37929;53.218;6.548;2023-10-31T00:58:51;4.13;;;1.80;;
51901;SDS011;37929;53.218;6.548;2023-10-31T01:01:17;3.47;;;1.52;;
51901;SDS011;37929;53.218;6.548;2023-10-31T01:03:43;4.40;;;1.48;;
51901;SDS011;37929;53.218;6.548;2023-10-31T01:06:09;6.05;;;1.80;;
51901;SDS011;37929;53.218;6.548;2023-10-31T01:08:35;3.85;;;1.38;;
51901;SDS011;37929;53.218;6.548;2023-10-31T01:11:00;4.90;;;1.73;;
51901;SDS011;37929;53.218;6.548;2023-10-31T01:13:26;6.40;;;1.42;;
51901;SDS011;37929;53.218;6.548;2023-10-31T01:15:52;4.65;;;1.40;;
51901;SDS011;37929;53.218;6.548;2023-10-31T01:18:18;4.40;;;1.40;;
51901;SDS011;37929;53.218;6.548;2023-10-31T01:20:43;3.70;;;1.40;;
51901;SDS011;37929;53.218;6.548;2023-10-31T01:23:09;3.85;;;1.23;;
51901;SDS011;37929;53.218;6.548;2023-10-31T01:25:35;6.18;;;1.60;;
51901;SDS011;37929;53.218;6.548;2023-10-31T01:28:00;6.38;;;1.88;;
51901;SDS011;37929;53.218;6.548;2023-10-31T01:30:26;4.03;;;1.70;;
51901;SDS011;37929;53.218;6.548;2023-10-31T01:32:52;6.97;;;2.03;;
51901;SDS011;37929;53.218;6.548;2023-10-31T01:35:17;5.35;;;1.70;;
51901;SDS011;37929;53.218;6.548;2023-10-31T01:37:43;4.38;;;1.92;;
51901;SDS011;37929;53.218;6.548;2023-10-31T01:40:12;3.67;;;1.65;;
51901;SDS011;37929;53.218;6.548;2023-10-31T01:42:38;5.50;;;2.08;;
51901;SDS011;37929;53.218;6.548;2023-10-31T01:45:04;4.35;;;1.90;;
51901;SDS011;37929;53.218;6.548;2023-10-31T01:47:31;6.45;;;2.13;;
51901;SDS011;37929;53.218;6.548;2023-10-31T01:49:57;7.05;;;1.90;;
51901;SDS011;37929;53.218;6.548;2023-10-31T01:52:24;3.58;;;1.60;;
51901;SDS011;37929;53.218;6.548;2023-10-31T01:54:50;4.85;;;1.45;;
51901;SDS011;37929;53.218;6.548;2023-10-31T01:57:16;5.28;;;1.60;;
51901;SDS011;37929;53.218;6.548;2023-10-31T01:59:46;6.03;;;1.45;;
51901;SDS011;37929;53.218;6.548;2023-10-31T02:02:11;6.78;;;1.63;;
51901;SDS011;37929;53.218;6.548;2023-10-31T02:04:38;6.03;;;2.08;;
51901;SDS011;37929;53.218;6.548;2023-10-31T02:07:03;4.40;;;1.80;;
51901;SDS011;37929;53.218;6.548;2023-10-31T02:09:29;3.80;;;1.52;;
51901;SDS011;37929;53.218;6.548;2023-10-31T02:11:55;7.50;;;1.33;;
51901;SDS011;37929;53.218;6.548;2023-10-31T02:14:22;3.13;;;1.35;;
51901;SDS011;37929;53.218;6.548;2023-10-31T02:16:48;5.75;;;1.50;;
51901;SDS011;37929;53.218;6.548;2023-10-31T02:19:14;4.70;;;1.70;;
51901;SDS011;37929;53.218;6.548;2023-10-31T02:21:44;5.78;;;1.60;;
51901;SDS011;37929;53.218;6.548;2023-10-31T02:24:09;5.00;;;1.40;;
51901;SDS011;37929;53.218;6.548;2023-10-31T02:26:35;6.65;;;1.38;;
51901;SDS011;37929;53.218;6.548;2023-10-31T02:29:01;5.75;;;1.60;;
51901;SDS011;37929;53.218;6.548;2023-10-31T02:31:27;5.40;;;1.58;;
51901;SDS011;37929;53.218;6.548;2023-10-31T02:33:54;5.80;;;1.73;;
51901;SDS011;37929;53.218;6.548;2023-10-31T02:36:19;5.38;;;1.70;;
51901;SDS011;37929;53.218;6.548;2023-10-31T02:38:45;6.45;;;1.85;;
51901;SDS011;37929;53.218;6.548;2023-10-31T02:41:11;5.30;;;1.70;;
51901;SDS011;37929;53.218;6.548;2023-10-31T02:43:38;6.05;;;1.60;;
51901;SDS011;37929;53.218;6.548;2023-10-31T02:46:04;4.18;;;1.83;;
51901;SDS011;37929;53.218;6.548;2023-10-31T02:48:30;5.90;;;2.15;;
51901;SDS011;37929;53.218;6.548;2023-10-31T02:51:04;5.97;;;2.13;;
51901;SDS011;37929;53.218;6.548;2023-10-31T02:53:30;6.80;;;2.17;;
51901;SDS011;37929;53.218;6.548;2023-10-31T02:55:56;5.20;;;2.22;;
51901;SDS011;37929;53.218;6.548;2023-10-31T02:58:22;5.88;;;2.30;;
51901;SDS011;37929;53.218;6.548;2023-10-31T03:00:48;5.00;;;2.40;;
51901;SDS011;37929;53.218;6.548;2023-10-31T03:03:14;5.78;;;2.33;;
51901;SDS011;37929;53.218;6.548;2023-10-31T03:05:40;7.15;;;2.30;;
51901;SDS011;37929;53.218;6.548;2023-10-31T03:08:05;9.05;;;2.63;;
51901;SDS011;37929;53.218;6.548;2023-10-31T03:10:33;10.77;;;2.58;;
51901;SDS011;37929;53.218;6.548;2023-10-31T03:12:59;7.00;;;2.80;;
51901;SDS011;37929;53.218;6.548;2023-10-31T03:15:24;10.73;;;3.10;;
51901;SDS011;37929;53.218;6.548;2023-10-31T03:17:50;6.40;;;2.58;;
51901;SDS011;37929;53.218;6.548;2023-10-31T03:20:16;8.63;;;3.42;;
51901;SDS011;37929;53.218;6.548;2023-10-31T03:22:42;7.53;;;3.28;;
51901;SDS011;37929;53.218;6.548;2023-10-31T03:25:07;7.43;;;3.13;;
51901;SDS011;37929;53.218;6.548;2023-10-31T03:27:33;6.82;;;2.75;;
51901;SDS011;37929;53.218;6.548;2023-10-31T03:29:59;7.25;;;3.50;;
51901;SDS011;37929;53.218;6.548;2023-10-31T03:32:25;10.95;;;3.25;;
51901;SDS011;37929;53.218;6.548;2023-10-31T03:34:50;9.25;;;4.00;;
51901;SDS011;37929;53.218;6.548;2023-10-31T03:37:16;8.43;;;3.97;;
51901;SDS011;37929;53.218;6.548;2023-10-31T03:39:42;7.90;;;4.35;;
51901;SDS011;37929;53.218;6.548;2023-10-31T03:42:07;11.02;;;4.15;;
51901;SDS011;37929;53.218;6.548;2023-10-31T03:44:33;10.98;;;4.28;;
51901;SDS011;37929;53.218;6.548;2023-10-31T03:46:59;8.48;;;4.07;;
51901;SDS011;37929;53.218;6.548;2023-10-31T03:49:24;9.60;;;4.63;;
51901;SDS011;37929;53.218;6.548;2023-10-31T03:51:50;9.30;;;4.47;;
51901;SDS011;37929;53.218;6.548;2023-10-31T03:54:17;11.07;;;4.50;;
51901;SDS011;37929;53.218;6.548;2023-10-31T03:56:43;8.40;;;4.50;;
51901;SDS011;37929;53.218;6.548;2023-10-31T03:59:09;7.25;;;3.90;;
51901;SDS011;37929;53.218;6.548;2023-10-31T04:01:35;7.78;;;3.70;;
51901;SDS011;37929;53.218;6.548;2023-10-31T04:04:01;9.07;;;4.13;;
51901;SDS011;37929;53.218;6.548;2023-10-31T04:06:27;7.72;;;3.92;;
51901;SDS011;37929;53.218;6.548;2023-10-31T04:08:53;10.55;;;4.32;;
51901;SDS011;37929;53.218;6.548;2023-10-31T04:11:19;7.45;;;3.83;;
51901;SDS011;37929;53.218;6.548;2023-10-31T04:13:45;5.93;;;3.67;;
51901;SDS011;37929;53.218;6.548;2023-10-31T04:16:11;9.88;;;3.67;;
51901;SDS011;37929;53.218;6.548;2023-10-31T04:18:37;8.43;;;3.80;;
51901;SDS011;37929;53.218;6.548;2023-10-31T04:21:02;7.65;;;3.80;;
51901;SDS011;37929;53.218;6.548;2023-10-31T04:23:28;10.85;;;3.50;;
51901;SDS011;37929;53.218;6.548;2023-10-31T04:25:54;8.80;;;4.13;;
51901;SDS011;37929;53.218;6.548;2023-10-31T04:28:20;9.73;;;4.93;;
51901;SDS011;37929;53.218;6.548;2023-10-31T04:30:45;9.15;;;4.63;;
51901;SDS011;37929;53.218;6.548;2023-10-31T04:33:11;12.02;;;5.85;;
51901;SDS011;37929;53.218;6.548;2023-10-31T04:35:37;10.57;;;6.07;;
51901;SDS011;37929;53.218;6.548;2023-10-31T04:38:02;12.27;;;6.40;;
51901;SDS011;37929;53.218;6.548;2023-10-31T04:40:28;13.07;;;6.43;;
51901;SDS011;37929;53.218;6.548;2023-10-31T04:42:54;11.13;;;6.40;;
51901;SDS011;37929;53.218;6.548;2023-10-31T04:45:20;13.88;;;6.75;;
51901;SDS011;37929;53.218;6.548;2023-10-31T04:47:45;13.63;;;6.57;;
51901;SDS011;37929;53.218;6.548;2023-10-31T04:50:11;12.88;;;6.28;;
51901;SDS011;37929;53.218;6.548;2023-10-31T04:52:37;9.00;;;5.15;;
51901;SDS011;37929;53.218;6.548;2023-10-31T04:55:02;12.55;;;4.63;;
51901;SDS011;37929;53.218;6.548;2023-10-31T04:57:28;7.55;;;4.28;;
51901;SDS011;37929;53.218;6.548;2023-10-31T04:59:54;11.25;;;4.20;;
51901;SDS011;37929;53.218;6.548;2023-10-31T05:02:22;11.15;;;3.83;;
51901;SDS011;37929;53.218;6.548;2023-10-31T05:04:48;8.00;;;2.90;;
51901;SDS011;37929;53.218;6.548;2023-10-31T05:07:19;7.53;;;3.25;;
51901;SDS011;37929;53.218;6.548;2023-10-31T05:09:45;7.68;;;2.95;;
51901;SDS011;37929;53.218;6.548;2023-10-31T05:12:11;8.40;;;2.85;;
51901;SDS011;37929;53.218;6.548;2023-10-31T05:14:36;5.43;;;2.30;;
51901;SDS011;37929;53.218;6.548;2023-10-31T05:17:02;5.28;;;2.10;;
51901;SDS011;37929;53.218;6.548;2023-10-31T05:19:28;6.10;;;2.40;;
51901;SDS011;37929;53.218;6.548;2023-10-31T05:21:54;4.75;;;1.90;;
51901;SDS011;37929;53.218;6.548;2023-10-31T05:24:20;5.10;;;1.75;;
51901;SDS011;37929;53.218;6.548;2023-10-31T05:26:46;4.40;;;2.00;;
51901;SDS011;37929;53.218;6.548;2023-10-31T05:29:11;4.20;;;1.92;;
51901;SDS011;37929;53.218;6.548;2023-10-31T05:31:37;3.38;;;1.60;;
51901;SDS011;37929;53.218;6.548;2023-10-31T05:34:03;4.40;;;1.58;;
51901;SDS011;37929;53.218;6.548;2023-10-31T05:36:29;3.28;;;1.40;;
51901;SDS011;37929;53.218;6.548;2023-10-31T05:38:55;2.17;;;1.42;;
51901;SDS011;37929;53.218;6.548;2023-10-31T05:41:21;3.60;;;1.48;;
51901;SDS011;37929;53.218;6.548;2023-10-31T05:43:47;2.63;;;1.33;;
51901;SDS011;37929;53.218;6.548;2023-10-31T05:46:12;2.88;;;1.38;;
51901;SDS011;37929;53.218;6.548;2023-10-31T05:48:40;3.83;;;1.58;;
51901;SDS011;37929;53.218;6.548;2023-10-31T05:51:13;5.13;;;1.73;;
51901;SDS011;37929;53.218;6.548;2023-10-31T05:53:40;3.60;;;1.90;;
51901;SDS011;37929;53.218;6.548;2023-10-31T05:56:07;2.90;;;1.50;;
51901;SDS011;37929;53.218;6.548;2023-10-31T05:58:33;4.60;;;1.52;;
51901;SDS011;37929;53.218;6.548;2023-10-31T06:00:59;3.65;;;1.55;;
51901;SDS011;37929;53.218;6.548;2023-10-31T06:03:24;2.83;;;1.33;;
51901;SDS011;37929;53.218;6.548;2023-10-31T06:05:50;2.10;;;1.10;;
51901;SDS011;37929;53.218;6.548;2023-10-31T06:08:16;4.57;;;1.40;;
51901;SDS011;37929;53.218;6.548;2023-10-31T06:10:42;2.35;;;1.23;;
51901;SDS011;37929;53.218;6.548;2023-10-31T06:13:07;3.13;;;1.33;;
51901;SDS011;37929;53.218;6.548;2023-10-31T06:15:33;2.90;;;1.33;;
51901;SDS011;37929;53.218;6.548;2023-10-31T06:17:59;6.18;;;1.77;;
51901;SDS011;37929;53.218;6.548;2023-10-31T06:20:24;3.70;;;1.60;;
51901;SDS011;37929;53.218;6.548;2023-10-31T06:22:51;2.80;;;1.50;;
51901;SDS011;37929;53.218;6.548;2023-10-31T06:25:16;3.47;;;1.60;;
51901;SDS011;37929;53.218;6.548;2023-10-31T06:27:42;4.43;;;2.03;;
51901;SDS011;37929;53.218;6.548;2023-10-31T06:30:08;5.63;;;1.92;;
51901;SDS011;37929;53.218;6.548;2023-10-31T06:32:34;3.38;;;1.75;;
51901;SDS011;37929;53.218;6.548;2023-10-31T06:35:00;3.05;;;1.80;;
51901;SDS011;37929;53.218;6.548;2023-10-31T06:37:26;3.70;;;1.95;;
51901;SDS011;37929;53.218;6.548;2023-10-31T06:39:51;4.53;;;2.15;;
51901;SDS011;37929;53.218;6.548;2023-10-31T06:42:17;6.00;;;2.15;;
51901;SDS011;37929;53.218;6.548;2023-10-31T06:44:43;5.07;;;2.17;;
51901;SDS011;37929;53.218;6.548;2023-10-31T06:47:09;5.45;;;2.30;;
51901;SDS011;37929;53.218;6.548;2023-10-31T06:49:34;5.85;;;2.70;;
51901;SDS011;37929;53.218;6.548;2023-10-31T06:52:02;6.10;;;2.90;;
51901;SDS011;37929;53.218;6.548;2023-10-31T06:54:28;5.03;;;2.72;;
51901;SDS011;37929;53.218;6.548;2023-10-31T06:56:54;5.47;;;2.88;;
51901;SDS011;37929;53.218;6.548;2023-10-31T06:59:19;5.15;;;2.70;;
51901;SDS011;37929;53.218;6.548;2023-10-31T07:01:45;6.28;;;3.20;;
51901;SDS011;37929;53.218;6.548;2023-10-31T07:04:11;5.07;;;2.70;;
51901;SDS011;37929;53.218;6.548;2023-10-31T07:06:37;6.32;;;2.92;;
51901;SDS011;37929;53.218;6.548;2023-10-31T07:09:03;8.27;;;2.78;;
51901;SDS011;37929;53.218;6.548;2023-10-31T07:11:30;7.72;;;2.88;;
51901;SDS011;37929;53.218;6.548;2023-10-31T07:14:00;7.55;;;3.10;;
51901;SDS011;37929;53.218;6.548;2023-10-31T07:16:27;6.80;;;3.00;;
51901;SDS011;37929;53.218;6.548;2023-10-31T07:18:53;6.88;;;2.72;;
51901;SDS011;37929;53.218;6.548;2023-10-31T07:21:19;6.53;;;3.90;;
51901;SDS011;37929;53.218;6.548;2023-10-31T07:23:45;7.00;;;3.13;;
51901;SDS011;37929;53.218;6.548;2023-10-31T07:26:11;6.50;;;3.10;;
51901;SDS011;37929;53.218;6.548;2023-10-31T07:28:37;6.82;;;2.80;;
51901;SDS011;37929;53.218;6.548;2023-10-31T07:31:02;6.32;;;2.80;;
51901;SDS011;37929;53.218;6.548;2023-10-31T07:33:30;6.05;;;2.85;;
51901;SDS011;37929;53.218;6.548;2023-10-31T07:35:55;6.18;;;2.95;;
51901;SDS011;37929;53.218;6.548;2023-10-31T07:38:21;7.22;;;3.75;;
51901;SDS011;37929;53.218;6.548;2023-10-31T07:40:47;8.82;;;2.90;;
51901;SDS011;37929;53.218;6.548;2023-10-31T07:43:14;8.05;;;2.92;;
51901;SDS011;37929;53.218;6.548;2023-10-31T07:45:40;8.15;;;2.70;;
51901;SDS011;37929;53.218;6.548;2023-10-31T07:48:07;4.47;;;2.28;;
51901;SDS011;37929;53.218;6.548;2023-10-31T07:50:33;7.10;;;2.55;;
51901;SDS011;37929;53.218;6.548;2023-10-31T07:52:59;6.00;;;2.30;;
51901;SDS011;37929;53.218;6.548;2023-10-31T07:55:25;7.38;;;2.25;;
51901;SDS011;37929;53.218;6.548;2023-10-31T07:57:50;3.22;;;1.98;;
51901;SDS011;37929;53.218;6.548;2023-10-31T08:00:16;5.13;;;1.88;;
51901;SDS011;37929;53.218;6.548;2023-10-31T08:02:42;4.93;;;2.20;;
51901;SDS011;37929;53.218;6.548;2023-10-31T08:05:09;4.47;;;1.63;;
51901;SDS011;37929;53.218;6.548;2023-10-31T08:07:35;7.03;;;2.10;;
51901;SDS011;37929;53.218;6.548;2023-10-31T08:10:01;5.22;;;1.67;;
51901;SDS011;37929;53.218;6.548;2023-10-31T08:12:29;4.20;;;1.80;;
51901;SDS011;37929;53.218;6.548;2023-10-31T08:14:55;5.45;;;1.92;;
51901;SDS011;37929;53.218;6.548;2023-10-31T08:17:20;5.43;;;2.17;;
51901;SDS011;37929;53.218;6.548;2023-10-31T08:19:46;5.10;;;2.30;;
51901;SDS011;37929;53.218;6.548;2023-10-31T08:22:13;5.82;;;2.20;;
51901;SDS011;37929;53.218;6.548;2023-10-31T08:24:38;5.20;;;1.83;;
51901;SDS011;37929;53.218;6.548;2023-10-31T08:27:04;2.67;;;1.35;;
51901;SDS011;37929;53.218;6.548;2023-10-31T08:29:31;3.55;;;1.60;;
51901;SDS011;37929;53.218;6.548;2023-10-31T08:31:57;6.78;;;1.83;;
51901;SDS011;37929;53.218;6.548;2023-10-31T08:34:22;5.65;;;2.10;;
51901;SDS011;37929;53.218;6.548;2023-10-31T08:36:48;7.22;;;3.53;;
51901;SDS011;37929;53.218;6.548;2023-10-31T08:39:15;8.88;;;3.20;;
51901;SDS011;37929;53.218;6.548;2023-10-31T08:41:53;6.00;;;2.97;;
51901;SDS011;37929;53.218;6.548;2023-10-31T08:44:24;8.85;;;2.10;;
51901;SDS011;37929;53.218;6.548;2023-10-31T08:46:52;6.53;;;1.50;;
51901;SDS011;37929;53.218;6.548;2023-10-31T08:49:18;5.38;;;1.70;;
51901;SDS011;37929;53.218;6.548;2023-10-31T08:51:45;10.52;;;1.73;;
51901;SDS011;37929;53.218;6.548;2023-10-31T08:54:11;5.38;;;1.30;;
51901;SDS011;37929;53.218;6.548;2023-10-31T08:56:36;6.88;;;1.50;;
51901;SDS011;37929;53.218;6.548;2023-10-31T08:59:02;9.10;;;1.95;;
51901;SDS011;37929;53.218;6.548;2023-10-31T09:01:28;9.23;;;1.70;;
51901;SDS011;37929;53.218;6.548;2023-10-31T09:03:54;7.25;;;1.48;;
51901;SDS011;37929;53.218;6.548;2023-10-31T09:06:20;8.75;;;1.50;;
51901;SDS011;37929;53.218;6.548;2023-10-31T09:08:46;7.20;;;1.25;;
51901;SDS011;37929;53.218;6.548;2023-10-31T09:11:12;5.90;;;1.48;;
51901;SDS011;37929;53.218;6.548;2023-10-31T09:13:37;3.22;;;1.25;;
51901;SDS011;37929;53.218;6.548;2023-10-31T09:16:03;6.40;;;1.08;;
51901;SDS011;37929;53.218;6.548;2023-10-31T09:18:29;5.13;;;0.90;;
51901;SDS011;37929;53.218;6.548;2023-10-31T09:20:55;2.95;;;0.80;;
51901;SDS011;37929;53.218;6.548;2023-10-31T09:23:20;4.28;;;1.15;;
51901;SDS011;37929;53.218;6.548;2023-10-31T09:25:46;8.30;;;1.13;;
51901;SDS011;37929;53.218;6.548;2023-10-31T09:28:12;3.50;;;1.13;;
51901;SDS011;37929;53.218;6.548;2023-10-31T09:30:38;5.40;;;1.05;;
51901;SDS011;37929;53.218;6.548;2023-10-31T09:33:03;3.13;;;0.98;;
51901;SDS011;37929;53.218;6.548;2023-10-31T09:35:29;7.32;;;1.30;;
51901;SDS011;37929;53.218;6.548;2023-10-31T09:37:55;3.95;;;0.93;;
51901;SDS011;37929;53.218;6.548;2023-10-31T09:40:21;5.97;;;1.20;;
51901;SDS011;37929;53.218;6.548;2023-10-31T09:42:47;3.58;;;0.93;;
51901;SDS011;37929;53.218;6.548;2023-10-31T09:45:13;4.18;;;0.80;;
51901;SDS011;37929;53.218;6.548;2023-10-31T09:47:39;3.63;;;1.08;;
51901;SDS011;37929;53.218;6.548;2023-10-31T09:50:06;5.55;;;0.82;;
51901;SDS011;37929;53.218;6.548;2023-10-31T09:52:37;6.03;;;1.00;;
51901;SDS011;37929;53.218;6.548;2023-10-31T09:55:04;3.80;;;0.90;;
51901;SDS011;37929;53.218;6.548;2023-10-31T09:57:31;2.97;;;0.93;;
51901;SDS011;37929;53.218;6.548;2023-10-31T09:59:57;4.13;;;0.90;;
51901;SDS011;37929;53.218;6.548;2023-10-31T10:02:23;2.50;;;1.17;;
51901;SDS011;37929;53.218;6.548;2023-10-31T10:04:50;2.13;;;0.80;;
51901;SDS011;37929;53.218;6.548;2023-10-31T10:07:16;3.75;;;0.93;;
51901;SDS011;37929;53.218;6.548;2023-10-31T10:09:43;4.88;;;1.00;;
51901;SDS011;37929;53.218;6.548;2023-10-31T10:12:11;1.80;;;0.73;;
51901;SDS011;37929;53.218;6.548;2023-10-31T10:14:38;3.72;;;0.88;;
51901;SDS011;37929;53.218;6.548;2023-10-31T10:17:24;2.65;;;0.75;;
51901;SDS011;37929;53.218;6.548;2023-10-31T10:20:06;6.10;;;1.00;;
51901;SDS011;37929;53.218;6.548;2023-10-31T10:22:39;4.25;;;1.13;;
51901;SDS011;37929;53.218;6.548;2023-10-31T10:25:07;3.22;;;1.05;;
51901;SDS011;37929;53.218;6.548;2023-10-31T10:27:34;2.22;;;1.00;;
51901;SDS011;37929;53.218;6.548;2023-10-31T10:30:01;4.97;;;0.90;;
51901;SDS011;37929;53.218;6.548;2023-10-31T10:32:28;4.03;;;0.98;;
51901;SDS011;37929;53.218;6.548;2023-10-31T10:34:54;3.13;;;1.00;;
51901;SDS011;37929;53.218;6.548;2023-10-31T10:37:21;3.38;;;1.02;;
51901;SDS011;37929;53.218;6.548;2023-10-31T10:39:48;2.58;;;0.82;;
51901;SDS011;37929;53.218;6.548;2023-10-31T10:42:21;2.75;;;0.80;;
51901;SDS011;37929;53.218;6.548;2023-10-31T10:45:03;5.07;;;1.08;;
51901;SDS011;37929;53.218;6.548;2023-10-31T10:47:34;4.57;;;1.05;;
51901;SDS011;37929;53.218;6.548;2023-10-31T10:50:01;6.40;;;1.60;;
51901;SDS011;37929;53.218;6.548;2023-10-31T10:55:25;4.75;;;1.00;;
51901;SDS011;37929;53.218;6.548;2023-10-31T10:58:00;4.78;;;1.23;;
51901;SDS011;37929;53.218;6.548;2023-10-31T11:00:30;2.70;;;0.90;;
51901;SDS011;37929;53.218;6.548;2023-10-31T11:02:57;4.40;;;1.10;;
51901;SDS011;37929;53.218;6.548;2023-10-31T11:05:24;4.25;;;1.10;;
51901;SDS011;37929;53.218;6.548;2023-10-31T11:07:50;5.55;;;1.10;;
51901;SDS011;37929;53.218;6.548;2023-10-31T11:10:17;3.30;;;0.80;;
51901;SDS011;37929;53.218;6.548;2023-10-31T11:12:43;3.20;;;0.70;;
51901;SDS011;37929;53.218;6.548;2023-10-31T11:15:10;4.22;;;1.13;;
51901;SDS011;37929;53.218;6.548;2023-10-31T11:17:39;4.90;;;1.02;;
51901;SDS011;37929;53.218;6.548;2023-10-31T11:20:07;2.90;;;1.08;;
51901;SDS011;37929;53.218;6.548;2023-10-31T11:22:42;3.08;;;1.02;;
51901;SDS011;37929;53.218;6.548;2023-10-31T11:25:11;5.28;;;1.17;;
51901;SDS011;37929;53.218;6.548;2023-10-31T11:27:39;3.90;;;0.90;;
51901;SDS011;37929;53.218;6.548;2023-10-31T11:30:07;2.83;;;0.90;;
51901;SDS011;37929;53.218;6.548;2023-10-31T11:32:48;4.20;;;0.90;;
51901;SDS011;37929;53.218;6.548;2023-10-31T11:35:17;4.45;;;1.40;;
51901;SDS011;37929;53.218;6.548;2023-10-31T11:37:43;5.00;;;1.40;;
51901;SDS011;37929;53.218;6.548;2023-10-31T11:42:43;4.13;;;1.10;;
51901;SDS011;37929;53.218;6.548;2023-10-31T11:45:11;5.22;;;1.90;;
51901;SDS011;37929;53.218;6.548;2023-10-31T11:47:50;4.97;;;1.10;;
51901;SDS011;37929;53.218;6.548;2023-10-31T11:50:16;3.10;;;1.13;;
51901;SDS011;37929;53.218;6.548;2023-10-31T11:52:43;7.15;;;1.80;;
51901;SDS011;37929;53.218;6.548;2023-10-31T11:55:12;5.15;;;1.02;;
51901;SDS011;37929;53.218;6.548;2023-10-31T11:57:38;4.22;;;1.23;;
51901;SDS011;37929;53.218;6.548;2023-10-31T12:00:05;4.85;;;1.20;;
51901;SDS011;37929;53.218;6.548;2023-10-31T12:02:32;5.03;;;1.27;;
51901;SDS011;37929;53.218;6.548;2023-10-31T12:05:11;4.25;;;0.98;;
51901;SDS011;37929;53.218;6.548;2023-10-31T12:07:44;6.53;;;1.52;;
51901;SDS011;37929;53.218;6.548;2023-10-31T12:10:11;6.57;;;1.38;;
51901;SDS011;37929;53.218;6.548;2023-10-31T12:12:37;6.50;;;1.20;;
51901;SDS011;37929;53.218;6.548;2023-10-31T12:15:10;5.93;;;1.35;;
51901;SDS011;37929;53.218;6.548;2023-10-31T12:17:36;4.75;;;1.20;;
51901;SDS011;37929;53.218;6.548;2023-10-31T12:20:05;7.57;;;1.38;;
51901;SDS011;37929;53.218;6.548;2023-10-31T12:22:32;4.97;;;1.48;;
51901;SDS011;37929;53.218;6.548;2023-10-31T12:25:05;5.53;;;1.13;;
51901;SDS011;37929;53.218;6.548;2023-10-31T12:27:48;3.40;;;1.80;;
51901;SDS011;37929;53.218;6.548;2023-10-31T12:30:15;4.53;;;1.20;;
51901;SDS011;37929;53.218;6.548;2023-10-31T12:32:43;5.68;;;1.23;;
51901;SDS011;37929;53.218;6.548;2023-10-31T12:35:13;4.55;;;1.20;;
51901;SDS011;37929;53.218;6.548;2023-10-31T12:37:47;5.30;;;1.20;;
51901;SDS011;37929;53.218;6.548;2023-10-31T12:40:16;7.00;;;1.33;;
51901;SDS011;37929;53.218;6.548;2023-10-31T12:42:43;5.00;;;1.30;;
51901;SDS011;37929;53.218;6.548;2023-10-31T12:45:11;3.85;;;1.10;;
51901;SDS011;37929;53.218;6.548;2023-10-31T12:47:37;5.38;;;1.52;;
51901;SDS011;37929;53.218;6.548;2023-10-31T12:50:13;4.22;;;1.40;;
51901;SDS011;37929;53.218;6.548;2023-10-31T12:52:46;4.07;;;1.30;;
51901;SDS011;37929;53.218;6.548;2023-10-31T12:55:13;4.05;;;1.23;;
51901;SDS011;37929;53.218;6.548;2023-10-31T12:57:40;6.63;;;1.40;;
51901;SDS011;37929;53.218;6.548;2023-10-31T13:00:06;4.32;;;1.30;;
51901;SDS011;37929;53.218;6.548;2023-10-31T13:02:35;8.85;;;1.80;;
51901;SDS011;37929;53.218;6.548;2023-10-31T13:05:14;7.63;;;1.30;;
51901;SDS011;37929;53.218;6.548;2023-10-31T13:07:50;3.95;;;1.30;;
51901;SDS011;37929;53.218;6.548;2023-10-31T13:10:17;5.53;;;1.35;;
51901;SDS011;37929;53.218;6.548;2023-10-31T13:12:47;3.47;;;1.60;;
51901;SDS011;37929;53.218;6.548;2023-10-31T13:15:14;4.63;;;1.10;;
51901;SDS011;37929;53.218;6.548;2023-10-31T13:17:41;6.68;;;1.60;;
51901;SDS011;37929;53.218;6.548;2023-10-31T13:20:11;7.32;;;1.35;;
51901;SDS011;37929;53.218;6.548;2023-10-31T13:22:38;6.03;;;1.20;;
51901;SDS011;37929;53.218;6.548;2023-10-31T13:25:06;3.13;;;1.60;;
51901;SDS011;37929;53.218;6.548;2023-10-31T13:27:39;3.97;;;1.30;;
51901;SDS011;37929;53.218;6.548;2023-10-31T13:30:12;5.68;;;1.33;;
51901;SDS011;37929;53.218;6.548;2023-10-31T13:32:42;4.10;;;1.13;;
51901;SDS011;37929;53.218;6.548;2023-10-31T13:35:08;4.10;;;1.30;;
51901;SDS011;37929;53.218;6.548;2023-10-31T13:37:39;8.15;;;1.52;;
51901;SDS011;37929;53.218;6.548;2023-10-31T13:40:05;3.90;;;1.23;;
51901;SDS011;37929;53.218;6.548;2023-10-31T13:42:33;6.93;;;1.33;;
51901;SDS011;37929;53.218;6.548;2023-10-31T13:45:02;8.20;;;1.80;;
51901;SDS011;37929;53.218;6.548;2023-10-31T13:47:28;3.88;;;1.13;;
51901;SDS011;37929;53.218;6.548;2023-10-31T13:49:55;6.22;;;1.17;;
51901;SDS011;37929;53.218;6.548;2023-10-31T13:52:20;4.75;;;1.30;;
51901;SDS011;37929;53.218;6.548;2023-10-31T13:54:47;3.60;;;1.30;;
51901;SDS011;37929;53.218;6.548;2023-10-31T13:57:13;6.78;;;1.17;;
51901;SDS011;37929;53.218;6.548;2023-10-31T13:59:39;4.80;;;1.73;;
51901;SDS011;37929;53.218;6.548;2023-10-31T14:02:05;3.05;;;1.20;;
51901;SDS011;37929;53.218;6.548;2023-10-31T14:04:31;3.60;;;1.10;;
51901;SDS011;37929;53.218;6.548;2023-10-31T14:06:57;6.22;;;1.30;;
51901;SDS011;37929;53.218;6.548;2023-10-31T14:09:24;7.18;;;1.70;;
51901;SDS011;37929;53.218;6.548;2023-10-31T14:11:49;6.00;;;1.50;;
51901;SDS011;37929;53.218;6.548;2023-10-31T14:14:15;4.43;;;1.33;;
51901;SDS011;37929;53.218;6.548;2023-10-31T14:16:41;3.53;;;1.30;;
51901;SDS011;37929;53.218;6.548;2023-10-31T14:19:10;5.32;;;1.45;;
51901;SDS011;37929;53.218;6.548;2023-10-31T14:21:36;5.00;;;1.30;;
51901;SDS011;37929;53.218;6.548;2023-10-31T14:24:02;4.05;;;1.40;;
51901;SDS011;37929;53.218;6.548;2023-10-31T14:26:29;4.13;;;1.10;;
51901;SDS011;37929;53.218;6.548;2023-10-31T14:28:55;5.95;;;1.20;;
51901;SDS011;37929;53.218;6.548;2023-10-31T14:31:25;5.80;;;1.23;;
51901;SDS011;37929;53.218;6.548;2023-10-31T14:33:51;4.20;;;1.08;;
51901;SDS011;37929;53.218;6.548;2023-10-31T14:36:17;3.95;;;1.13;;
51901;SDS011;37929;53.218;6.548;2023-10-31T14:38:43;3.95;;;1.10;;
51901;SDS011;37929;53.218;6.548;2023-10-31T14:41:09;4.63;;;1.17;;
51901;SDS011;37929;53.218;6.548;2023-10-31T14:43:35;4.95;;;1.33;;
51901;SDS011;37929;53.218;6.548;2023-10-31T14:46:01;3.17;;;1.40;;
51901;SDS011;37929;53.218;6.548;2023-10-31T14:48:27;2.72;;;1.30;;
51901;SDS011;37929;53.218;6.548;2023-10-31T14:50:53;3.92;;;1.25;;